sensor_id;sensor_type;location;lat;lon;timestamp;pressure;altitude;pressure_sealevel;temperature;humidity
36242;BME280;22283;42.748;12.732;2024-01-16T00:03:41;96973.78;;;10.65;100.00
36242;BME280;22283;42.748;12.732;2024-01-16T00:08:42;96976.84;;;10.60;100.00
36242;BME280;22283;42.748;12.732;2024-01-16T00:13:43;96971.03;;;10.66;99.97
36242;BME280;22283;42.748;12.732;2024-01-16T00:18:43;96969.06;;;10.68;99.74
36242;BME280;22283;42.748;12.732;2024-01-16T00:23:44;96977.28;;;10.65;99.98
36242;BME280;22283;42.748;12.732;2024-01-16T00:28:44;96965.44;;;10.69;99.45
36242;BME280;22283;42.748;12.732;2024-01-16T00:33:45;96967.38;;;10.67;99.09
36242;BME280;22283;42.748;12.732;2024-01-16T00:38:45;96971.41;;;10.71;98.66
36242;BME280;22283;42.748;12.732;2024-01-16T00:43:46;96975.16;;;10.69;98.69
36242;BME280;22283;42.748;12.732;2024-01-16T00:48:47;96983.97;;;10.69;98.98
36242;BME280;22283;42.748;12.732;2024-01-16T00:53:48;96989.94;;;10.71;97.37
36242;BME280;22283;42.748;12.732;2024-01-16T00:58:49;96988.94;;;10.72;97.10
36242;BME280;22283;42.748;12.732;2024-01-16T01:03:49;96985.47;;;10.72;97.98
36242;BME280;22283;42.748;12.732;2024-01-16T01:08:50;96989.94;;;10.71;98.17
36242;BME280;22283;42.748;12.732;2024-01-16T01:13:51;96991.91;;;10.69;97.77
36242;BME280;22283;42.748;12.732;2024-01-16T01:18:52;97011.38;;;10.68;97.85
36242;BME280;22283;42.748;12.732;2024-01-16T01:23:52;97018.75;;;10.65;95.74
36242;BME280;22283;42.748;12.732;2024-01-16T01:28:53;97017.25;;;10.62;96.62
36242;BME280;22283;42.748;12.732;2024-01-16T01:33:53;97027.81;;;10.62;96.24
36242;BME280;22283;42.748;12.732;2024-01-16T01:38:54;97027.00;;;10.62;96.82
36242;BME280;22283;42.748;12.732;2024-01-16T01:43:55;97028.50;;;10.64;97.09
36242;BME280;22283;42.748;12.732;2024-01-16T01:48:55;97030.88;;;10.67;96.16
36242;BME280;22283;42.748;12.732;2024-01-16T01:53:57;97043.69;;;10.72;95.85
36242;BME280;22283;42.748;12.732;2024-01-16T01:58:59;97040.91;;;10.73;95.30
36242;BME280;22283;42.748;12.732;2024-01-16T02:04:01;97038.25;;;10.73;95.23
36242;BME280;22283;42.748;12.732;2024-01-16T02:09:02;97051.75;;;10.70;95.03
36242;BME280;22283;42.748;12.732;2024-01-16T02:14:07;97046.75;;;10.67;95.60
36242;BME280;22283;42.748;12.732;2024-01-16T02:19:08;97054.53;;;10.69;95.65
36242;BME280;22283;42.748;12.732;2024-01-16T02:24:10;97051.75;;;10.70;95.39
36242;BME280;22283;42.748;12.732;2024-01-16T02:29:12;97047.97;;;10.73;95.28
36242;BME280;22283;42.748;12.732;2024-01-16T02:34:12;97040.91;;;10.54;97.28
36242;BME280;22283;42.748;12.732;2024-01-16T02:39:13;97041.16;;;10.31;98.95
36242;BME280;22283;42.748;12.732;2024-01-16T02:44:14;97049.72;;;10.14;100.00
36242;BME280;22283;42.748;12.732;2024-01-16T02:49:15;97056.09;;;10.02;100.00
36242;BME280;22283;42.748;12.732;2024-01-16T02:54:16;97061.47;;;9.91;100.00
36242;BME280;22283;42.748;12.732;2024-01-16T02:59:16;97059.63;;;9.81;100.00
36242;BME280;22283;42.748;12.732;2024-01-16T03:04:17;97061.50;;;9.60;100.00
36242;BME280;22283;42.748;12.732;2024-01-16T03:09:17;97059.81;;;9.59;100.00
36242;BME280;22283;42.748;12.732;2024-01-16T03:14:18;97062.72;;;9.56;100.00
36242;BME280;22283;42.748;12.732;2024-01-16T03:19:19;97053.78;;;9.47;100.00
36242;BME280;22283;42.748;12.732;2024-01-16T03:24:20;97042.22;;;9.39;100.00
36242;BME280;22283;42.748;12.732;2024-01-16T03:29:20;97041.91;;;9.32;100.00
36242;BME280;22283;42.748;12.732;2024-01-16T03:34:23;97048.25;;;9.29;100.00
36242;BME280;22283;42.748;12.732;2024-01-16T03:39:24;97055.81;;;9.13;100.00
36242;BME280;22283;42.748;12.732;2024-01-16T03:44:24;97063.94;;;9.00;100.00
36242;BME280;22283;42.748;12.732;2024-01-16T03:49:25;97071.88;;;8.68;100.00
36242;BME280;22283;42.748;12.732;2024-01-16T03:54:25;97074.94;;;8.52;100.00
36242;BME280;22283;42.748;12.732;2024-01-16T03:59:26;97072.31;;;8.30;100.00
36242;BME280;22283;42.748;12.732;2024-01-16T04:04:27;97073.69;;;8.13;100.00
36242;BME280;22283;42.748;12.732;2024-01-16T04:09:28;97080.88;;;8.11;100.00
36242;BME280;22283;42.748;12.732;2024-01-16T04:14:29;97082.56;;;8.01;100.00
36242;BME280;22283;42.748;12.732;2024-01-16T04:19:30;97079.81;;;7.80;100.00
36242;BME280;22283;42.748;12.732;2024-01-16T04:24:33;97070.00;;;7.59;100.00
36242;BME280;22283;42.748;12.732;2024-01-16T04:29:39;97075.41;;;7.47;100.00
36242;BME280;22283;42.748;12.732;2024-01-16T04:34:39;97071.19;;;7.22;100.00
36242;BME280;22283;42.748;12.732;2024-01-16T04:39:40;97082.78;;;7.19;100.00
36242;BME280;22283;42.748;12.732;2024-01-16T04:44:40;97089.03;;;7.29;100.00
36242;BME280;22283;42.748;12.732;2024-01-16T04:49:42;97101.94;;;7.32;100.00
36242;BME280;22283;42.748;12.732;2024-01-16T04:54:42;97098.72;;;7.29;100.00
36242;BME280;22283;42.748;12.732;2024-01-16T04:59:45;97108.88;;;7.33;100.00
36242;BME280;22283;42.748;12.732;2024-01-16T05:04:46;97127.16;;;7.24;100.00
36242;BME280;22283;42.748;12.732;2024-01-16T05:09:49;97128.19;;;7.10;100.00
36242;BME280;22283;42.748;12.732;2024-01-16T05:14:50;97128.78;;;7.02;100.00
36242;BME280;22283;42.748;12.732;2024-01-16T05:19:51;97129.03;;;7.10;100.00
36242;BME280;22283;42.748;12.732;2024-01-16T05:24:51;97140.44;;;7.22;100.00
36242;BME280;22283;42.748;12.732;2024-01-16T05:29:52;97131.63;;;7.46;100.00
36242;BME280;22283;42.748;12.732;2024-01-16T05:34:53;97149.56;;;7.52;100.00
36242;BME280;22283;42.748;12.732;2024-01-16T05:39:53;97149.81;;;7.49;100.00
36242;BME280;22283;42.748;12.732;2024-01-16T05:44:54;97166.09;;;7.54;100.00
36242;BME280;22283;42.748;12.732;2024-01-16T05:49:55;97170.16;;;7.47;100.00
36242;BME280;22283;42.748;12.732;2024-01-16T05:54:56;97172.28;;;7.42;100.00
36242;BME280;22283;42.748;12.732;2024-01-16T05:59:58;97177.75;;;7.27;100.00
36242;BME280;22283;42.748;12.732;2024-01-16T06:04:59;97167.88;;;7.07;100.00
36242;BME280;22283;42.748;12.732;2024-01-16T06:09:59;97176.31;;;6.99;100.00
36242;BME280;22283;42.748;12.732;2024-01-16T06:15:00;97181.94;;;6.95;100.00
36242;BME280;22283;42.748;12.732;2024-01-16T06:20:01;97192.59;;;6.80;100.00
36242;BME280;22283;42.748;12.732;2024-01-16T06:25:01;97202.19;;;6.81;100.00
36242;BME280;22283;42.748;12.732;2024-01-16T06:30:02;97203.41;;;6.88;100.00
36242;BME280;22283;42.748;12.732;2024-01-16T06:35:04;97198.81;;;6.79;100.00
36242;BME280;22283;42.748;12.732;2024-01-16T06:40:06;97204.75;;;6.70;100.00
36242;BME280;22283;42.748;12.732;2024-01-16T06:45:07;97200.88;;;6.63;100.00
36242;BME280;22283;42.748;12.732;2024-01-16T06:50:08;97207.81;;;6.64;100.00
36242;BME280;22283;42.748;12.732;2024-01-16T06:55:08;97216.38;;;6.55;100.00
36242;BME280;22283;42.748;12.732;2024-01-16T07:00:09;97228.47;;;6.45;100.00
36242;BME280;22283;42.748;12.732;2024-01-16T07:05:11;97232.50;;;6.37;100.00
36242;BME280;22283;42.748;12.732;2024-01-16T07:10:12;97239.34;;;6.27;100.00
36242;BME280;22283;42.748;12.732;2024-01-16T07:15:19;97242.91;;;6.26;100.00
36242;BME280;22283;42.748;12.732;2024-01-16T07:20:19;97251.81;;;6.36;100.00
36242;BME280;22283;42.748;12.732;2024-01-16T07:25:20;97256.66;;;6.43;100.00
36242;BME280;22283;42.748;12.732;2024-01-16T07:30:21;97264.38;;;6.57;100.00
36242;BME280;22283;42.748;12.732;2024-01-16T07:35:21;97270.63;;;6.80;100.00
36242;BME280;22283;42.748;12.732;2024-01-16T07:40:22;97280.81;;;6.97;100.00
36242;BME280;22283;42.748;12.732;2024-01-16T07:45:24;97281.31;;;7.26;100.00
36242;BME280;22283;42.748;12.732;2024-01-16T07:50:24;97280.47;;;7.50;100.00
36242;BME280;22283;42.748;12.732;2024-01-16T07:55:25;97291.66;;;7.76;100.00
36242;BME280;22283;42.748;12.732;2024-01-16T08:00:27;97304.16;;;7.85;100.00
36242;BME280;22283;42.748;12.732;2024-01-16T08:05:27;97300.25;;;8.02;100.00
36242;BME280;22283;42.748;12.732;2024-01-16T08:10:30;97294.41;;;8.21;100.00
36242;BME280;22283;42.748;12.732;2024-01-16T08:15:31;97307.75;;;8.42;100.00
36242;BME280;22283;42.748;12.732;2024-01-16T08:20:32;97326.69;;;8.58;100.00
36242;BME280;22283;42.748;12.732;2024-01-16T08:25:32;97333.88;;;8.78;100.00
36242;BME280;22283;42.748;12.732;2024-01-16T08:30:33;97341.09;;;8.99;100.00
36242;BME280;22283;42.748;12.732;2024-01-16T08:35:33;97339.84;;;9.14;100.00
36242;BME280;22283;42.748;12.732;2024-01-16T08:40:34;97348.94;;;9.32;100.00
36242;BME280;22283;42.748;12.732;2024-01-16T08:45:34;97357.25;;;9.60;100.00
36242;BME280;22283;42.748;12.732;2024-01-16T08:50:35;97349.72;;;9.88;100.00
36242;BME280;22283;42.748;12.732;2024-01-16T08:55:36;97352.97;;;10.12;99.86
36242;BME280;22283;42.748;12.732;2024-01-16T09:00:36;97347.34;;;10.38;96.97
36242;BME280;22283;42.748;12.732;2024-01-16T09:05:37;97348.81;;;10.61;95.08
36242;BME280;22283;42.748;12.732;2024-01-16T09:10:39;97345.31;;;10.81;92.21
36242;BME280;22283;42.748;12.732;2024-01-16T09:15:39;97368.94;;;11.04;90.50
36242;BME280;22283;42.748;12.732;2024-01-16T09:20:40;97361.63;;;11.17;87.97
36242;BME280;22283;42.748;12.732;2024-01-16T09:25:41;97369.78;;;11.45;87.23
36242;BME280;22283;42.748;12.732;2024-01-16T09:30:42;97384.84;;;11.64;84.06
36242;BME280;22283;42.748;12.732;2024-01-16T09:35:42;97373.44;;;11.82;84.25
36242;BME280;22283;42.748;12.732;2024-01-16T09:40:43;97375.16;;;12.03;83.06
36242;BME280;22283;42.748;12.732;2024-01-16T09:45:44;97387.28;;;12.15;82.45
36242;BME280;22283;42.748;12.732;2024-01-16T09:50:46;97376.25;;;12.29;80.84
36242;BME280;22283;42.748;12.732;2024-01-16T09:55:49;97380.44;;;12.42;79.04
36242;BME280;22283;42.748;12.732;2024-01-16T10:00:50;97372.75;;;12.39;78.96
36242;BME280;22283;42.748;12.732;2024-01-16T10:05:51;97357.28;;;12.44;78.28
36242;BME280;22283;42.748;12.732;2024-01-16T10:10:52;97342.44;;;12.51;77.49
36242;BME280;22283;42.748;12.732;2024-01-16T10:15:53;97357.78;;;12.57;78.71
36242;BME280;22283;42.748;12.732;2024-01-16T10:20:56;97342.84;;;12.56;78.72
36242;BME280;22283;42.748;12.732;2024-01-16T10:26:10;97336.31;;;12.88;74.87
36242;BME280;22283;42.748;12.732;2024-01-16T10:31:13;97335.53;;;13.05;73.19
36242;BME280;22283;42.748;12.732;2024-01-16T10:36:16;97328.69;;;13.40;67.38
36242;BME280;22283;42.748;12.732;2024-01-16T10:41:19;97316.25;;;13.58;65.93
36242;BME280;22283;42.748;12.732;2024-01-16T10:46:25;97309.66;;;13.62;64.25
36242;BME280;22283;42.748;12.732;2024-01-16T10:51:30;97317.03;;;13.86;64.14
36242;BME280;22283;42.748;12.732;2024-01-16T10:56:31;97322.88;;;13.90;63.92
36242;BME280;22283;42.748;12.732;2024-01-16T11:01:32;97320.34;;;14.06;61.32
36242;BME280;22283;42.748;12.732;2024-01-16T11:06:33;97314.84;;;14.25;60.10
36242;BME280;22283;42.748;12.732;2024-01-16T11:11:34;97318.25;;;14.36;59.71
36242;BME280;22283;42.748;12.732;2024-01-16T11:16:35;97321.66;;;14.46;60.36
36242;BME280;22283;42.748;12.732;2024-01-16T11:21:37;97308.72;;;14.51;58.71
36242;BME280;22283;42.748;12.732;2024-01-16T11:26:40;97304.31;;;14.68;58.01
36242;BME280;22283;42.748;12.732;2024-01-16T11:31:44;97301.59;;;14.86;59.14
36242;BME280;22283;42.748;12.732;2024-01-16T11:36:52;97300.53;;;15.05;58.67
36242;BME280;22283;42.748;12.732;2024-01-16T11:41:56;97291.50;;;14.97;59.21
36242;BME280;22283;42.748;12.732;2024-01-16T11:47:00;97295.22;;;15.13;55.53
36242;BME280;22283;42.748;12.732;2024-01-16T11:52:01;97290.13;;;15.36;55.25
36242;BME280;22283;42.748;12.732;2024-01-16T11:57:44;97280.97;;;15.38;52.55
36242;BME280;22283;42.748;12.732;2024-01-16T12:02:56;97273.47;;;15.34;53.16
36242;BME280;22283;42.748;12.732;2024-01-16T12:07:56;97277.16;;;15.33;54.25
36242;BME280;22283;42.748;12.732;2024-01-16T12:12:58;97284.41;;;15.14;55.32
36242;BME280;22283;42.748;12.732;2024-01-16T12:18:00;97282.34;;;15.00;55.86
36242;BME280;22283;42.748;12.732;2024-01-16T12:23:03;97273.72;;;15.06;56.00
36242;BME280;22283;42.748;12.732;2024-01-16T12:28:05;97259.88;;;15.03;55.50
36242;BME280;22283;42.748;12.732;2024-01-16T12:33:11;97272.69;;;14.99;57.20
36242;BME280;22283;42.748;12.732;2024-01-16T12:38:13;97254.88;;;14.99;57.67
36242;BME280;22283;42.748;12.732;2024-01-16T12:43:15;97264.88;;;14.97;59.25
36242;BME280;22283;42.748;12.732;2024-01-16T12:48:22;97263.63;;;14.84;60.68
36242;BME280;22283;42.748;12.732;2024-01-16T12:53:23;97267.25;;;14.74;61.08
36242;BME280;22283;42.748;12.732;2024-01-16T12:58:24;97267.34;;;14.91;62.03
36242;BME280;22283;42.748;12.732;2024-01-16T13:03:27;97263.25;;;15.13;61.63
36242;BME280;22283;42.748;12.732;2024-01-16T13:08:28;97245.19;;;15.57;60.22
36242;BME280;22283;42.748;12.732;2024-01-16T13:13:29;97252.19;;;15.50;60.56
36242;BME280;22283;42.748;12.732;2024-01-16T13:18:30;97264.56;;;15.67;60.37
36242;BME280;22283;42.748;12.732;2024-01-16T13:23:30;97245.88;;;15.76;60.91
36242;BME280;22283;42.748;12.732;2024-01-16T13:28:31;97237.34;;;15.64;61.06
36242;BME280;22283;42.748;12.732;2024-01-16T13:33:32;97236.31;;;15.32;63.35
36242;BME280;22283;42.748;12.732;2024-01-16T13:38:33;97249.09;;;15.12;62.59
36242;BME280;22283;42.748;12.732;2024-01-16T13:43:34;97245.22;;;14.98;63.94
36242;BME280;22283;42.748;12.732;2024-01-16T13:48:34;97248.97;;;14.80;64.31
36242;BME280;22283;42.748;12.732;2024-01-16T13:53:35;97256.94;;;14.71;66.16
36242;BME280;22283;42.748;12.732;2024-01-16T13:58:35;97252.56;;;14.62;66.87
36242;BME280;22283;42.748;12.732;2024-01-16T14:03:36;97260.13;;;14.49;66.29
36242;BME280;22283;42.748;12.732;2024-01-16T14:08:38;97259.59;;;14.45;66.51
36242;BME280;22283;42.748;12.732;2024-01-16T14:13:38;97272.06;;;14.45;67.78
36242;BME280;22283;42.748;12.732;2024-01-16T14:18:39;97281.22;;;14.24;68.69
36242;BME280;22283;42.748;12.732;2024-01-16T14:23:41;97280.47;;;14.06;69.96
36242;BME280;22283;42.748;12.732;2024-01-16T14:28:44;97296.41;;;13.88;71.19
36242;BME280;22283;42.748;12.732;2024-01-16T14:33:45;97294.22;;;13.84;71.89
36242;BME280;22283;42.748;12.732;2024-01-16T14:38:45;97296.28;;;13.90;72.25
36242;BME280;22283;42.748;12.732;2024-01-16T14:43:48;97306.34;;;14.04;73.23
36242;BME280;22283;42.748;12.732;2024-01-16T14:48:49;97310.94;;;13.94;74.46
36242;BME280;22283;42.748;12.732;2024-01-16T14:53:50;97316.25;;;13.94;73.98
36242;BME280;22283;42.748;12.732;2024-01-16T14:58:51;97325.44;;;13.82;75.62
36242;BME280;22283;42.748;12.732;2024-01-16T15:03:52;97331.66;;;13.72;76.99
36242;BME280;22283;42.748;12.732;2024-01-16T15:08:53;97338.28;;;13.68;77.28
36242;BME280;22283;42.748;12.732;2024-01-16T15:13:54;97332.22;;;13.58;77.22
36242;BME280;22283;42.748;12.732;2024-01-16T15:18:57;97337.94;;;13.53;76.66
36242;BME280;22283;42.748;12.732;2024-01-16T15:23:59;97332.72;;;13.44;75.13
36242;BME280;22283;42.748;12.732;2024-01-16T15:29:00;97335.00;;;13.39;75.14
36242;BME280;22283;42.748;12.732;2024-01-16T15:34:01;97342.16;;;13.28;76.22
36242;BME280;22283;42.748;12.732;2024-01-16T15:39:01;97355.31;;;13.20;77.10
36242;BME280;22283;42.748;12.732;2024-01-16T15:44:02;97354.50;;;13.10;77.98
36242;BME280;22283;42.748;12.732;2024-01-16T15:49:03;97363.38;;;13.01;79.03
36242;BME280;22283;42.748;12.732;2024-01-16T15:54:04;97364.34;;;13.00;80.27
36242;BME280;22283;42.748;12.732;2024-01-16T15:59:05;97356.53;;;12.98;81.62
36242;BME280;22283;42.748;12.732;2024-01-16T16:04:06;97351.09;;;12.90;83.47
36242;BME280;22283;42.748;12.732;2024-01-16T16:09:07;97349.88;;;12.85;84.87
36242;BME280;22283;42.748;12.732;2024-01-16T16:14:11;97339.56;;;12.82;86.59
36242;BME280;22283;42.748;12.732;2024-01-16T16:19:12;97349.19;;;12.83;87.87
36242;BME280;22283;42.748;12.732;2024-01-16T16:24:13;97345.28;;;12.77;88.71
36242;BME280;22283;42.748;12.732;2024-01-16T16:29:13;97350.44;;;12.78;88.52
36242;BME280;22283;42.748;12.732;2024-01-16T16:34:14;97339.59;;;12.72;89.63
36242;BME280;22283;42.748;12.732;2024-01-16T16:39:15;97341.53;;;12.70;90.26
36242;BME280;22283;42.748;12.732;2024-01-16T16:44:17;97351.31;;;12.69;91.06
36242;BME280;22283;42.748;12.732;2024-01-16T16:49:18;97352.72;;;12.73;88.88
36242;BME280;22283;42.748;12.732;2024-01-16T16:54:18;97362.06;;;12.77;88.72
36242;BME280;22283;42.748;12.732;2024-01-16T16:59:19;97350.31;;;12.80;88.96
36242;BME280;22283;42.748;12.732;2024-01-16T17:04:20;97357.03;;;12.74;88.77
36242;BME280;22283;42.748;12.732;2024-01-16T17:09:20;97349.94;;;12.65;90.09
36242;BME280;22283;42.748;12.732;2024-01-16T17:14:21;97378.84;;;12.68;88.71
36242;BME280;22283;42.748;12.732;2024-01-16T17:19:23;97377.03;;;12.69;88.85
36242;BME280;22283;42.748;12.732;2024-01-16T17:24:24;97379.97;;;12.66;88.57
36242;BME280;22283;42.748;12.732;2024-01-16T17:29:25;97394.38;;;12.63;87.24
36242;BME280;22283;42.748;12.732;2024-01-16T17:34:26;97391.28;;;12.58;85.97
36242;BME280;22283;42.748;12.732;2024-01-16T17:39:26;97391.28;;;12.58;84.31
36242;BME280;22283;42.748;12.732;2024-01-16T17:44:28;97397.88;;;12.54;84.45
36242;BME280;22283;42.748;12.732;2024-01-16T17:49:32;97406.81;;;12.53;83.52
36242;BME280;22283;42.748;12.732;2024-01-16T17:54:33;97420.09;;;12.53;82.34
36242;BME280;22283;42.748;12.732;2024-01-16T17:59:40;97412.28;;;12.51;82.98
36242;BME280;22283;42.748;12.732;2024-01-16T18:04:41;97429.28;;;12.39;86.09
36242;BME280;22283;42.748;12.732;2024-01-16T18:09:42;97437.41;;;12.28;88.13
36242;BME280;22283;42.748;12.732;2024-01-16T18:14:43;97443.13;;;12.23;87.86
36242;BME280;22283;42.748;12.732;2024-01-16T18:19:43;97450.22;;;12.03;90.80
36242;BME280;22283;42.748;12.732;2024-01-16T18:24:47;97459.69;;;11.87;93.23
36242;BME280;22283;42.748;12.732;2024-01-16T18:29:48;97471.09;;;11.77;94.90
36242;BME280;22283;42.748;12.732;2024-01-16T18:34:48;97460.34;;;11.79;96.01
36242;BME280;22283;42.748;12.732;2024-01-16T18:39:49;97462.31;;;11.77;96.53
36242;BME280;22283;42.748;12.732;2024-01-16T18:44:50;97476.22;;;11.69;99.24
36242;BME280;22283;42.748;12.732;2024-01-16T18:49:52;97476.19;;;11.60;100.00
36242;BME280;22283;42.748;12.732;2024-01-16T18:54:53;97492.22;;;11.58;100.00
36242;BME280;22283;42.748;12.732;2024-01-16T18:59:54;97482.44;;;11.58;100.00
36242;BME280;22283;42.748;12.732;2024-01-16T19:04:57;97484.41;;;11.56;100.00
36242;BME280;22283;42.748;12.732;2024-01-16T19:09:58;97488.81;;;11.46;100.00
36242;BME280;22283;42.748;12.732;2024-01-16T19:14:58;97482.44;;;11.49;100.00
36242;BME280;22283;42.748;12.732;2024-01-16T19:19:59;97494.69;;;11.50;100.00
36242;BME280;22283;42.748;12.732;2024-01-16T19:25:04;97505.91;;;11.63;100.00
36242;BME280;22283;42.748;12.732;2024-01-16T19:30:05;97495.28;;;11.53;100.00
36242;BME280;22283;42.748;12.732;2024-01-16T19:35:09;97499.44;;;11.56;99.93
36242;BME280;22283;42.748;12.732;2024-01-16T19:40:10;97500.97;;;11.49;100.00
36242;BME280;22283;42.748;12.732;2024-01-16T19:45:12;97500.50;;;11.44;100.00
36242;BME280;22283;42.748;12.732;2024-01-16T19:50:18;97508.63;;;11.52;100.00
36242;BME280;22283;42.748;12.732;2024-01-16T19:55:23;97513.84;;;11.63;99.02
36242;BME280;22283;42.748;12.732;2024-01-16T20:00:24;97522.84;;;11.51;99.53
36242;BME280;22283;42.748;12.732;2024-01-16T20:05:25;97519.59;;;11.38;100.00
36242;BME280;22283;42.748;12.732;2024-01-16T20:10:26;97528.13;;;11.41;99.74
36242;BME280;22283;42.748;12.732;2024-01-16T20:15:27;97535.34;;;11.39;100.00
36242;BME280;22283;42.748;12.732;2024-01-16T20:20:29;97529.66;;;11.44;100.00
36242;BME280;22283;42.748;12.732;2024-01-16T20:25:30;97524.09;;;11.47;100.00
36242;BME280;22283;42.748;12.732;2024-01-16T20:30:31;97494.44;;;11.53;99.72
36242;BME280;22283;42.748;12.732;2024-01-16T20:35:33;97486.41;;;11.64;98.91
36242;BME280;22283;42.748;12.732;2024-01-16T20:40:34;97491.25;;;11.59;98.29
36242;BME280;22283;42.748;12.732;2024-01-16T20:45:34;97496.63;;;11.48;99.83
36242;BME280;22283;42.748;12.732;2024-01-16T20:50:35;97493.69;;;11.41;100.00
36242;BME280;22283;42.748;12.732;2024-01-16T20:55:35;97500.09;;;11.39;100.00
36242;BME280;22283;42.748;12.732;2024-01-16T21:00:40;97511.09;;;11.44;100.00
36242;BME280;22283;42.748;12.732;2024-01-16T21:05:41;97523.13;;;11.48;97.87
36242;BME280;22283;42.748;12.732;2024-01-16T21:10:53;97530.38;;;11.46;97.95
36242;BME280;22283;42.748;12.732;2024-01-16T21:16:10;97523.22;;;11.37;99.26
36242;BME280;22283;42.748;12.732;2024-01-16T21:21:12;97533.34;;;11.31;100.00
36242;BME280;22283;42.748;12.732;2024-01-16T21:26:13;97523.06;;;11.28;100.00
36242;BME280;22283;42.748;12.732;2024-01-16T21:31:15;97543.38;;;11.28;99.77
36242;BME280;22283;42.748;12.732;2024-01-16T21:36:15;97554.50;;;11.22;99.60
36242;BME280;22283;42.748;12.732;2024-01-16T21:41:19;97559.59;;;11.14;99.84
36242;BME280;22283;42.748;12.732;2024-01-16T21:46:19;97554.41;;;11.12;99.16
36242;BME280;22283;42.748;12.732;2024-01-16T21:51:20;97561.72;;;11.20;98.13
36242;BME280;22283;42.748;12.732;2024-01-16T21:56:21;97564.75;;;11.15;97.74
36242;BME280;22283;42.748;12.732;2024-01-16T22:01:21;97571.88;;;11.15;97.38
36242;BME280;22283;42.748;12.732;2024-01-16T22:06:22;97572.75;;;11.04;97.85
36242;BME280;22283;42.748;12.732;2024-01-16T22:11:23;97584.13;;;10.95;98.59
36242;BME280;22283;42.748;12.732;2024-01-16T22:16:23;97582.47;;;10.94;98.68
36242;BME280;22283;42.748;12.732;2024-01-16T22:21:26;97590.69;;;10.79;99.40
36242;BME280;22283;42.748;12.732;2024-01-16T22:26:27;97587.69;;;10.73;100.00
36242;BME280;22283;42.748;12.732;2024-01-16T22:31:27;97579.69;;;10.63;100.00
36242;BME280;22283;42.748;12.732;2024-01-16T22:36:28;97576.44;;;10.59;100.00
36242;BME280;22283;42.748;12.732;2024-01-16T22:41:29;97569.59;;;10.57;100.00
36242;BME280;22283;42.748;12.732;2024-01-16T22:46:32;97563.22;;;10.59;100.00
36242;BME280;22283;42.748;12.732;2024-01-16T22:51:35;97557.09;;;10.59;100.00
36242;BME280;22283;42.748;12.732;2024-01-16T22:56:35;97551.03;;;10.68;100.00
36242;BME280;22283;42.748;12.732;2024-01-16T23:01:36;97556.44;;;10.78;99.72
36242;BME280;22283;42.748;12.732;2024-01-16T23:06:37;97517.78;;;10.87;99.51
36242;BME280;22283;42.748;12.732;2024-01-16T23:11:38;97523.91;;;10.87;99.29
36242;BME280;22283;42.748;12.732;2024-01-16T23:16:40;97520.84;;;10.92;98.57
36242;BME280;22283;42.748;12.732;2024-01-16T23:21:42;97506.94;;;10.90;97.88
36242;BME280;22283;42.748;12.732;2024-01-16T23:26:43;97514.16;;;10.88;97.81
36242;BME280;22283;42.748;12.732;2024-01-16T23:31:43;97516.53;;;10.91;96.24
36242;BME280;22283;42.748;12.732;2024-01-16T23:36:44;97529.78;;;10.91;96.42
36242;BME280;22283;42.748;12.732;2024-01-16T23:41:45;97540.56;;;10.99;96.36
36242;BME280;22283;42.748;12.732;2024-01-16T23:46:45;97530.41;;;11.04;96.09
36242;BME280;22283;42.748;12.732;2024-01-16T23:51:46;97501.56;;;11.01;96.05
36242;BME280;22283;42.748;12.732;2024-01-16T23:56:47;97474.88;;;10.93;96.56
